createdAt,value
2023-06-25T00:01:18.891Z,101275.06
2023-06-25T00:03:46.621Z,101276.17
2023-06-25T00:06:13.678Z,101271.89
2023-06-25T00:08:41.388Z,101264.00
2023-06-25T00:11:08.332Z,101263.20
2023-06-25T00:13:35.405Z,101268.70
2023-06-25T00:16:02.339Z,101273.08
2023-06-25T00:18:29.768Z,101277.93
2023-06-25T00:20:56.604Z,101269.02
2023-06-25T00:23:25.598Z,101268.59
2023-06-25T00:25:52.543Z,101265.89
2023-06-25T00:28:19.694Z,101264.73
2023-06-25T00:30:46.669Z,101262.48
2023-06-25T00:33:13.684Z,101254.94
2023-06-25T00:35:50.666Z,101251.58
2023-06-25T00:38:18.461Z,101254.63
2023-06-25T00:40:45.594Z,101263.66
2023-06-25T00:43:15.712Z,101267.61
2023-06-25T00:45:43.795Z,101271.42
2023-06-25T00:48:10.822Z,101268.39
2023-06-25T00:50:37.977Z,101263.77
2023-06-25T00:53:09.449Z,101262.65
2023-06-25T00:55:37.843Z,101261.58
2023-06-25T00:58:05.691Z,101258.64
2023-06-25T01:00:34.284Z,101255.21
2023-06-25T01:03:08.177Z,101256.27
2023-06-25T01:05:40.637Z,101256.09
2023-06-25T01:08:11.261Z,101256.09
2023-06-25T01:10:40.278Z,101250.72
2023-06-25T01:13:07.436Z,101256.45
2023-06-25T01:15:36.880Z,101263.38
2023-06-25T01:18:05.490Z,101262.33
2023-06-25T01:20:32.740Z,101262.33
2023-06-25T01:22:59.653Z,101267.71
2023-06-25T01:25:26.941Z,101263.80
2023-06-25T01:27:55.123Z,101255.17
2023-06-25T01:30:26.047Z,101257.77
2023-06-25T01:32:53.440Z,101253.56
2023-06-25T01:35:21.222Z,101246.14
2023-06-25T01:37:48.217Z,101248.46
2023-06-25T01:40:15.388Z,101245.54
2023-06-25T01:42:43.868Z,101245.77
2023-06-25T01:45:12.381Z,101244.23
2023-06-25T01:47:40.082Z,101241.80
2023-06-25T01:50:07.665Z,101244.14
2023-06-25T01:52:35.099Z,101244.92
2023-06-25T01:55:02.367Z,101241.82
2023-06-25T01:57:30.017Z,101243.68
2023-06-25T01:59:57.075Z,101249.80
2023-06-25T02:02:24.169Z,101253.09
2023-06-25T02:04:51.252Z,101250.15
2023-06-25T02:07:18.235Z,101247.61
2023-06-25T02:09:45.551Z,101246.09
2023-06-25T02:12:12.612Z,101242.05
2023-06-25T02:14:39.629Z,101242.10
2023-06-25T02:17:06.376Z,101245.02
2023-06-25T02:19:34.253Z,101251.33
2023-06-25T02:22:01.334Z,101246.07
2023-06-25T02:24:28.348Z,101242.60
2023-06-25T02:26:56.221Z,101236.66
2023-06-25T02:29:23.270Z,101238.69
2023-06-25T02:31:50.311Z,101238.30
2023-06-25T02:34:17.472Z,101237.95
2023-06-25T02:36:44.506Z,101239.90
2023-06-25T02:39:11.673Z,101245.23
2023-06-25T02:41:40.555Z,101239.38
2023-06-25T02:44:08.120Z,101238.09
2023-06-25T02:46:37.047Z,101234.37
2023-06-25T02:49:05.110Z,101237.58
2023-06-25T02:51:32.228Z,101238.47
2023-06-25T02:53:59.467Z,101237.86
2023-06-25T02:56:26.254Z,101233.98
2023-06-25T02:58:53.150Z,101234.55
2023-06-25T03:01:20.113Z,101238.96
2023-06-25T03:03:47.976Z,101233.80
2023-06-25T03:06:15.007Z,101237.04
2023-06-25T03:08:44.514Z,101231.68
2023-06-25T03:11:12.174Z,101231.45
2023-06-25T03:13:39.336Z,101230.66
2023-06-25T03:16:06.588Z,101234.31
2023-06-25T03:18:33.858Z,101233.82
2023-06-25T03:21:00.874Z,101232.48
2023-06-25T03:23:27.860Z,101228.34
2023-06-25T03:25:55.071Z,101231.92
2023-06-25T03:28:27.341Z,101232.23
2023-06-25T03:30:54.630Z,101226.88
2023-06-25T03:33:22.173Z,101225.65
2023-06-25T03:35:49.312Z,101231.17
2023-06-25T03:38:16.564Z,101222.98
2023-06-25T03:40:43.934Z,101223.88
2023-06-25T03:43:11.783Z,101227.40
2023-06-25T03:45:39.081Z,101225.02
2023-06-25T03:48:06.878Z,101225.88
2023-06-25T03:50:34.175Z,101225.31
2023-06-25T03:53:01.603Z,101231.14
2023-06-25T03:55:30.184Z,101223.48
2023-06-25T03:57:57.645Z,101221.73
2023-06-25T04:00:25.187Z,101218.42
2023-06-25T04:02:52.566Z,101214.54
2023-06-25T04:05:19.618Z,101213.16
2023-06-25T04:07:48.210Z,101212.78
2023-06-25T04:10:15.970Z,101212.42
2023-06-25T04:12:45.358Z,101207.41
2023-06-25T04:15:12.367Z,101210.77
2023-06-25T04:17:40.598Z,101208.23
2023-06-25T04:20:09.069Z,101206.61
2023-06-25T04:22:37.140Z,101206.23
2023-06-25T04:25:05.091Z,101204.73
2023-06-25T04:27:32.674Z,101206.63
2023-06-25T04:29:59.706Z,101204.46
2023-06-25T04:32:27.804Z,101205.73
2023-06-25T04:34:54.721Z,101204.55
2023-06-25T04:37:22.075Z,101200.17
2023-06-25T04:39:49.633Z,101200.10
2023-06-25T04:42:16.785Z,101201.92
2023-06-25T04:44:43.625Z,101198.88
2023-06-25T04:47:10.674Z,101204.29
2023-06-25T04:49:37.823Z,101204.52
2023-06-25T04:52:06.199Z,101208.10
2023-06-25T04:54:33.244Z,101208.08
2023-06-25T04:57:00.087Z,101206.86
2023-06-25T04:59:28.283Z,101209.27
2023-06-25T05:01:55.749Z,101213.18
2023-06-25T05:04:22.668Z,101215.19
2023-06-25T05:06:49.865Z,101214.94
2023-06-25T05:09:16.857Z,101217.42
2023-06-25T05:11:43.819Z,101212.17
2023-06-25T05:14:11.085Z,101215.04
2023-06-25T05:16:38.104Z,101214.54
2023-06-25T05:19:05.044Z,101211.33
2023-06-25T05:21:32.103Z,101205.75
2023-06-25T05:24:00.770Z,101204.17
2023-06-25T05:26:28.442Z,101206.98
2023-06-25T05:28:55.509Z,101210.02
2023-06-25T05:31:22.667Z,101207.91
2023-06-25T05:33:50.002Z,101213.65
2023-06-25T05:36:17.031Z,101209.44
2023-06-25T05:38:43.993Z,101208.84
2023-06-25T05:41:11.773Z,101212.95
2023-06-25T05:43:39.506Z,101217.88
2023-06-25T05:46:06.557Z,101215.72
2023-06-25T05:48:34.171Z,101218.35
2023-06-25T05:51:01.264Z,101221.90
2023-06-25T05:53:38.240Z,101216.17
2023-06-25T05:56:05.803Z,101219.58
2023-06-25T05:58:34.698Z,101220.94
2023-06-25T06:01:02.270Z,101218.27
2023-06-25T06:03:29.530Z,101217.81
2023-06-25T06:05:57.678Z,101221.65
2023-06-25T06:08:25.024Z,101225.83
2023-06-25T06:10:52.279Z,101227.16
2023-06-25T06:13:19.222Z,101233.45
2023-06-25T06:15:46.290Z,101236.30
2023-06-25T06:18:13.318Z,101237.23
2023-06-25T06:20:40.239Z,101236.08
2023-06-25T06:23:07.004Z,101239.98
2023-06-25T06:25:35.315Z,101239.68
2023-06-25T06:28:03.143Z,101245.40
2023-06-25T06:30:30.458Z,101246.64
2023-06-25T06:32:57.706Z,101247.61
2023-06-25T06:35:24.598Z,101247.75
2023-06-25T06:37:51.547Z,101240.57
2023-06-25T06:40:18.687Z,101240.02
2023-06-25T06:42:45.821Z,101239.33
2023-06-25T06:45:12.793Z,101239.70
2023-06-25T06:47:40.288Z,101241.54
2023-06-25T06:50:07.915Z,101245.27
2023-06-25T06:52:35.076Z,101243.84
2023-06-25T06:55:01.859Z,101242.13
2023-06-25T06:57:29.049Z,101244.51
2023-06-25T06:59:56.195Z,101243.48
2023-06-25T07:02:23.563Z,101242.09
2023-06-25T07:04:51.208Z,101245.48
2023-06-25T07:07:18.530Z,101245.62
2023-06-25T07:09:52.375Z,101247.13
2023-06-25T07:12:19.621Z,101246.08
2023-06-25T07:14:46.569Z,101247.56
2023-06-25T07:17:13.509Z,101249.45
2023-06-25T07:19:40.595Z,101245.72
2023-06-25T07:22:07.545Z,101246.11
2023-06-25T07:24:35.074Z,101243.66
2023-06-25T07:27:02.107Z,101245.23
2023-06-25T07:29:29.589Z,101239.19
2023-06-25T07:31:56.672Z,101237.70
2023-06-25T07:34:23.770Z,101240.42
2023-06-25T07:36:50.817Z,101241.30
2023-06-25T07:39:24.224Z,101241.94
2023-06-25T07:41:50.963Z,101240.48
2023-06-25T07:46:50.260Z,101242.95
2023-06-25T07:49:17.225Z,101244.78
2023-06-25T07:51:50.287Z,101242.91
2023-06-25T07:54:17.851Z,101238.79
2023-06-25T07:56:45.621Z,101240.71
2023-06-25T07:59:13.821Z,101239.93
2023-06-25T08:01:40.736Z,101236.68
2023-06-25T08:04:08.461Z,101233.52
2023-06-25T08:06:36.263Z,101233.84
2023-06-25T08:09:03.919Z,101235.83
2023-06-25T08:11:31.307Z,101231.67
2023-06-25T08:13:58.337Z,101233.68
2023-06-25T08:16:25.329Z,101233.13
2023-06-25T08:18:52.420Z,101234.39
2023-06-25T08:21:19.461Z,101236.63
2023-06-25T08:23:46.314Z,101234.83
2023-06-25T08:26:16.540Z,101230.44
2023-06-25T08:28:44.609Z,101230.57
2023-06-25T08:31:14.366Z,101221.84
2023-06-25T08:33:41.487Z,101221.13
2023-06-25T08:36:08.408Z,101224.52
2023-06-25T08:38:36.304Z,101220.35
2023-06-25T08:41:03.091Z,101216.73
2023-06-25T08:43:30.044Z,101208.38
2023-06-25T08:45:57.144Z,101209.38
2023-06-25T08:48:26.975Z,101209.08
2023-06-25T08:50:56.819Z,101208.82
2023-06-25T08:53:28.792Z,101209.52
2023-06-25T08:55:59.017Z,101208.42
2023-06-25T08:58:26.167Z,101204.71
2023-06-25T09:00:53.239Z,101202.77
2023-06-25T09:03:20.337Z,101198.95
2023-06-25T09:05:54.671Z,101198.98
2023-06-25T09:08:23.017Z,101205.05
2023-06-25T09:10:52.055Z,101199.19
2023-06-25T09:13:23.594Z,101195.78
2023-06-25T09:15:50.852Z,101196.16
2023-06-25T09:18:24.359Z,101192.64
2023-06-25T09:20:53.083Z,101192.33
2023-06-25T09:23:23.876Z,101191.31
2023-06-25T09:25:51.528Z,101187.86
2023-06-25T09:28:19.348Z,101189.64
2023-06-25T09:30:46.872Z,101186.54
2023-06-25T09:33:14.468Z,101189.80
2023-06-25T09:35:41.668Z,101191.81
2023-06-25T09:38:08.837Z,101191.13
2023-06-25T09:40:36.236Z,101190.42
2023-06-25T09:43:06.416Z,101187.94
2023-06-25T09:45:34.565Z,101190.73
2023-06-25T09:48:02.195Z,101189.36
2023-06-25T09:50:40.405Z,101183.29
2023-06-25T09:53:08.605Z,101184.10
2023-06-25T09:55:37.604Z,101185.48
2023-06-25T09:58:04.975Z,101180.14
2023-06-25T10:00:32.102Z,101179.17
2023-06-25T10:02:59.457Z,101172.86
2023-06-25T10:05:26.914Z,101170.14
2023-06-25T10:07:53.862Z,101170.30
2023-06-25T10:10:21.462Z,101168.16
2023-06-25T10:12:50.101Z,101167.89
2023-06-25T10:15:47.144Z,101162.11
2023-06-25T10:18:23.058Z,101156.36
2023-06-25T10:20:49.973Z,101152.09
2023-06-25T10:23:27.119Z,101150.73
2023-06-25T10:25:58.877Z,101141.61
2023-06-25T10:28:50.927Z,101136.14
2023-06-25T10:31:19.041Z,101132.07
2023-06-25T10:33:46.582Z,101132.73
2023-06-25T10:36:13.711Z,101132.05
2023-06-25T10:38:41.059Z,101122.92
2023-06-25T10:41:08.003Z,101125.36
2023-06-25T10:43:37.012Z,101123.23
2023-06-25T10:46:04.061Z,101120.65
2023-06-25T10:48:31.614Z,101123.50
2023-06-25T10:50:58.753Z,101121.40
2023-06-25T10:53:25.964Z,101120.36
2023-06-25T10:55:53.872Z,101117.80
2023-06-25T10:58:24.938Z,101114.13
2023-06-25T11:00:58.675Z,101110.84
2023-06-25T11:03:26.429Z,101109.44
2023-06-25T11:05:53.585Z,101110.95
2023-06-25T11:08:24.475Z,101114.62
2023-06-25T11:10:51.321Z,101114.27
2023-06-25T11:13:18.762Z,101110.86
2023-06-25T11:15:48.080Z,101105.27
2023-06-25T11:18:16.039Z,101104.94
2023-06-25T11:20:43.617Z,101101.90
2023-06-25T11:23:11.569Z,101097.09
2023-06-25T11:25:39.222Z,101095.64
2023-06-25T11:28:08.749Z,101094.54
2023-06-25T11:30:35.591Z,101085.17
2023-06-25T11:33:11.929Z,101082.56
2023-06-25T11:35:39.464Z,101078.79
2023-06-25T11:38:06.638Z,101076.55
2023-06-25T11:40:35.248Z,101073.64
2023-06-25T11:43:02.886Z,101064.98
2023-06-25T11:45:43.373Z,101060.63
2023-06-25T11:48:15.018Z,101058.91
2023-06-25T11:50:45.881Z,101050.86
2023-06-25T11:53:12.864Z,101048.36
2023-06-25T11:55:40.437Z,101039.34
2023-06-25T11:58:10.971Z,101042.54
2023-06-25T12:00:38.798Z,101036.20
2023-06-25T12:03:07.321Z,101031.16
2023-06-25T12:05:34.438Z,101028.63
2023-06-25T12:08:02.443Z,101023.48
2023-06-25T12:10:29.480Z,101025.81
2023-06-25T12:12:56.456Z,101023.83
2023-06-25T12:15:23.576Z,101021.54
2023-06-25T12:17:51.050Z,101021.54
2023-06-25T12:20:18.438Z,101026.33
2023-06-25T12:22:45.697Z,101023.98
2023-06-25T12:25:12.801Z,101020.64
2023-06-25T12:27:41.409Z,101014.01
2023-06-25T12:30:09.451Z,101011.02
2023-06-25T12:32:38.202Z,101015.45
2023-06-25T12:35:05.895Z,101014.86
2023-06-25T12:37:32.836Z,101018.20
2023-06-25T12:40:00.089Z,101014.13
2023-06-25T12:42:27.036Z,101009.48
2023-06-25T12:44:53.994Z,101013.31
2023-06-25T12:47:20.956Z,101008.17
2023-06-25T12:49:48.308Z,101005.62
2023-06-25T12:52:15.389Z,101006.55
2023-06-25T12:54:42.374Z,101005.39
2023-06-25T12:57:10.253Z,101004.89
2023-06-25T12:59:38.528Z,101002.89
2023-06-25T13:02:06.698Z,101000.21
2023-06-25T13:04:33.843Z,100994.54
2023-06-25T13:07:02.437Z,100992.49
2023-06-25T13:09:30.409Z,100996.83
2023-06-25T13:11:57.639Z,101001.17
2023-06-25T13:14:24.760Z,101002.84
2023-06-25T13:16:52.924Z,101003.73
2023-06-25T13:19:19.711Z,101000.89
2023-06-25T13:21:47.377Z,101004.48
2023-06-25T13:24:14.939Z,101007.48
2023-06-25T13:26:45.320Z,101013.39
2023-06-25T13:29:13.012Z,101013.42
2023-06-25T13:31:40.614Z,101015.46
2023-06-25T13:34:07.577Z,101012.81
2023-06-25T13:36:34.658Z,101017.30
2023-06-25T13:39:01.836Z,101016.41
2023-06-25T13:41:29.701Z,101010.67
2023-06-25T13:43:57.544Z,101013.92
2023-06-25T13:46:24.556Z,101012.48
2023-06-25T13:48:51.250Z,101009.70
2023-06-25T13:51:18.124Z,101006.89
2023-06-25T13:53:45.322Z,101005.49
2023-06-25T13:56:12.594Z,101003.65
2023-06-25T13:58:41.803Z,101010.67
2023-06-25T14:01:08.830Z,101011.29
2023-06-25T14:03:35.927Z,101018.40
2023-06-25T14:06:03.371Z,101016.41
2023-06-25T14:08:30.496Z,101016.27
2023-06-25T14:10:57.427Z,101013.17
2023-06-25T14:13:24.565Z,101008.11
2023-06-25T14:16:01.949Z,101005.98
2023-06-25T14:18:33.305Z,101001.40
2023-06-25T14:21:00.152Z,101001.20
2023-06-25T14:23:27.908Z,100996.67
2023-06-25T14:25:56.595Z,100994.16
2023-06-25T14:28:24.560Z,100995.58
2023-06-25T14:30:53.658Z,101003.12
2023-06-25T14:33:21.219Z,101008.67
2023-06-25T14:35:48.059Z,101013.88
2023-06-25T14:38:15.014Z,101010.91
2023-06-25T14:40:42.313Z,101009.14
2023-06-25T14:43:09.318Z,101011.19
2023-06-25T14:45:36.995Z,101017.30
2023-06-25T14:48:05.076Z,101018.42
2023-06-25T14:50:33.787Z,101019.93
2023-06-25T14:53:02.510Z,101013.81
2023-06-25T14:55:31.196Z,101015.08
2023-06-25T14:57:59.477Z,101014.86
2023-06-25T15:00:26.437Z,101012.61
2023-06-25T15:02:53.583Z,101019.88
2023-06-25T15:05:20.820Z,101020.48
2023-06-25T15:07:47.787Z,101013.66
2023-06-25T15:10:14.646Z,101013.98
2023-06-25T15:12:42.382Z,101008.98
2023-06-25T15:15:09.934Z,101011.92
2023-06-25T15:17:36.912Z,101021.31
2023-06-25T15:20:06.695Z,101044.44
2023-06-25T15:22:34.448Z,101047.23
2023-06-25T15:25:01.395Z,101038.98
2023-06-25T15:27:28.349Z,101025.41
2023-06-25T15:29:55.278Z,101025.99
2023-06-25T15:32:22.466Z,101026.51
2023-06-25T15:34:49.582Z,101020.02
2023-06-25T15:37:17.244Z,101016.36
2023-06-25T15:39:44.213Z,101013.30
2023-06-25T15:42:11.139Z,101003.73
2023-06-25T15:44:38.282Z,100997.72
2023-06-25T15:47:05.536Z,100997.59
2023-06-25T15:49:32.385Z,100991.70
2023-06-25T15:51:59.341Z,100977.59
2023-06-25T15:54:26.869Z,100973.52
2023-06-25T15:56:54.064Z,100977.48
2023-06-25T15:59:21.507Z,100978.51
2023-06-25T16:01:48.788Z,100989.46
2023-06-25T16:04:15.986Z,101010.77
2023-06-25T16:06:43.004Z,101021.63
2023-06-25T16:09:10.090Z,101023.37
2023-06-25T16:11:37.693Z,101017.30
2023-06-25T16:14:04.588Z,101012.48
2023-06-25T16:16:31.835Z,101019.52
2023-06-25T16:19:17.171Z,101018.65
2023-06-25T16:21:46.614Z,101011.31
2023-06-25T16:24:13.675Z,100999.11
2023-06-25T16:26:40.610Z,100993.55
2023-06-25T16:29:07.766Z,100994.45
2023-06-25T16:31:34.781Z,100990.39
2023-06-25T16:34:01.953Z,100989.91
2023-06-25T16:36:29.312Z,100981.30
2023-06-25T16:38:56.256Z,100980.17
2023-06-25T16:41:23.305Z,100987.30
2023-06-25T16:43:50.255Z,100992.79
2023-06-25T16:46:17.281Z,100996.11
2023-06-25T16:48:44.553Z,100999.90
2023-06-25T16:51:11.401Z,100999.32
2023-06-25T16:53:38.228Z,100996.52
2023-06-25T16:56:05.295Z,100988.81
2023-06-25T16:58:32.323Z,100982.54
2023-06-25T17:00:59.168Z,100985.11
2023-06-25T17:03:26.403Z,100986.13
2023-06-25T17:05:54.389Z,100987.48
2023-06-25T17:08:23.288Z,100990.09
2023-06-25T17:10:50.733Z,100983.96
2023-06-25T17:13:18.099Z,100986.09
2023-06-25T17:15:45.769Z,100981.80
2023-06-25T17:18:15.152Z,100980.16
2023-06-25T17:20:42.404Z,100981.99
2023-06-25T17:23:09.482Z,100977.36
2023-06-25T17:25:37.880Z,100982.47
2023-06-25T17:28:05.282Z,100984.45
2023-06-25T17:30:32.229Z,100983.86
2023-06-25T17:32:59.340Z,100982.19
2023-06-25T17:35:26.323Z,100980.98
2023-06-25T17:37:53.482Z,100976.83
2023-06-25T17:40:20.326Z,100979.14
2023-06-25T17:42:48.402Z,100978.20
2023-06-25T17:45:15.251Z,100980.38
2023-06-25T17:47:44.592Z,100974.75
2023-06-25T17:50:11.757Z,100971.17
2023-06-25T17:52:39.146Z,100967.09
2023-06-25T17:55:06.292Z,100968.20
2023-06-25T17:57:33.272Z,100963.88
2023-06-25T18:00:01.020Z,100964.37
2023-06-25T18:02:28.599Z,100962.31
2023-06-25T18:04:55.602Z,100966.01
2023-06-25T18:07:22.788Z,100968.94
2023-06-25T18:09:49.728Z,100971.39
2023-06-25T18:12:17.768Z,100973.68
2023-06-25T18:14:45.138Z,100975.27
2023-06-25T18:17:12.172Z,100973.69
2023-06-25T18:19:39.736Z,100975.83
2023-06-25T18:22:06.773Z,100976.21
2023-06-25T18:24:33.716Z,100977.41
2023-06-25T18:27:00.690Z,100979.49
2023-06-25T18:29:27.707Z,100979.87
2023-06-25T18:31:54.655Z,100983.52
2023-06-25T18:34:21.628Z,100983.02
2023-06-25T18:36:48.557Z,100991.11
2023-06-25T18:39:15.595Z,100991.00
2023-06-25T18:41:42.669Z,100993.09
2023-06-25T18:44:09.783Z,100995.14
2023-06-25T18:46:37.914Z,100993.48
2023-06-25T18:49:05.028Z,100995.80
2023-06-25T18:51:32.153Z,100998.18
2023-06-25T18:53:59.000Z,100997.93
2023-06-25T18:56:26.259Z,100999.28
2023-06-25T18:58:53.512Z,100999.70
2023-06-25T19:01:20.649Z,100997.61
2023-06-25T19:03:48.203Z,100992.95
2023-06-25T19:06:15.277Z,100993.05
2023-06-25T19:08:42.227Z,100990.23
2023-06-25T19:11:10.110Z,100981.70
2023-06-25T19:13:37.209Z,100976.20
2023-06-25T19:16:05.101Z,100974.32
2023-06-25T19:18:32.331Z,100970.94
2023-06-25T19:20:59.295Z,100970.84
2023-06-25T19:23:29.991Z,100973.00
2023-06-25T19:26:02.146Z,100971.98
2023-06-25T19:28:29.022Z,100965.92
2023-06-25T19:30:55.903Z,100959.06
2023-06-25T19:33:23.830Z,100958.06
2023-06-25T19:35:50.794Z,100955.59
2023-06-25T19:38:17.735Z,100955.08
2023-06-25T19:40:44.971Z,100950.73
2023-06-25T19:43:12.201Z,100949.75
2023-06-25T19:45:39.066Z,100950.77
2023-06-25T19:48:06.290Z,100949.37
2023-06-25T19:50:33.524Z,100951.30
2023-06-25T19:53:00.714Z,100941.51
2023-06-25T19:55:27.557Z,100937.39
2023-06-25T19:57:54.613Z,100933.80
2023-06-25T20:00:21.660Z,100943.55
2023-06-25T20:02:48.656Z,100940.63
2023-06-25T20:05:18.529Z,100932.83
2023-06-25T20:07:48.855Z,100922.77
2023-06-25T20:10:16.590Z,100913.24
2023-06-25T20:12:44.072Z,100911.72
2023-06-25T20:15:11.639Z,100912.21
2023-06-25T20:17:38.694Z,100912.36
2023-06-25T20:20:06.201Z,100912.65
2023-06-25T20:22:32.963Z,100924.70
2023-06-25T20:24:59.815Z,100922.87
2023-06-25T20:27:26.878Z,100928.83
2023-06-25T20:29:53.894Z,100940.09
2023-06-25T20:32:20.808Z,100931.88
2023-06-25T20:34:47.889Z,100929.73
2023-06-25T20:37:16.305Z,100927.67
2023-06-25T20:39:43.212Z,100928.36
2023-06-25T20:42:10.156Z,100928.63
2023-06-25T20:44:37.613Z,100931.64
2023-06-25T20:47:05.682Z,100926.52
2023-06-25T20:49:32.561Z,100924.25
2023-06-25T20:52:00.186Z,100925.76
2023-06-25T20:54:28.368Z,100930.40
2023-06-25T20:56:55.624Z,100930.48
2023-06-25T20:59:22.567Z,100922.23
2023-06-25T21:02:00.257Z,100913.31
2023-06-25T21:04:27.198Z,100905.21
2023-06-25T21:06:53.925Z,100910.96
2023-06-25T21:09:20.685Z,100910.12
2023-06-25T21:11:47.722Z,100909.17
2023-06-25T21:14:14.566Z,100908.33
2023-06-25T21:16:41.627Z,100907.16
2023-06-25T21:19:08.678Z,100908.42
2023-06-25T21:21:35.827Z,100909.88
2023-06-25T21:24:03.165Z,100914.48
2023-06-25T21:26:30.127Z,100915.84
2023-06-25T21:28:57.363Z,100921.90
2023-06-25T21:31:24.350Z,100930.73
2023-06-25T21:33:51.680Z,100946.16
2023-06-25T21:36:18.612Z,100967.96
2023-06-25T21:38:45.558Z,100990.34
2023-06-25T21:41:12.612Z,101010.80
2023-06-25T21:43:39.648Z,101020.66
2023-06-25T21:46:06.597Z,101021.61
2023-06-25T21:48:34.257Z,101016.24
2023-06-25T21:51:01.216Z,101021.93
2023-06-25T21:53:28.350Z,101006.86
2023-06-25T21:55:55.984Z,100988.25
2023-06-25T21:58:24.304Z,100974.73
2023-06-25T22:00:51.398Z,100969.24
2023-06-25T22:03:19.277Z,100959.12
2023-06-25T22:05:46.562Z,100961.48
2023-06-25T22:08:13.630Z,100960.38
2023-06-25T22:10:41.259Z,100964.23
2023-06-25T22:13:08.469Z,100963.56
2023-06-25T22:15:36.181Z,100969.71
2023-06-25T22:18:04.046Z,100975.23
2023-06-25T22:20:31.136Z,100977.70
2023-06-25T22:22:58.434Z,100992.51
2023-06-25T22:25:26.132Z,101003.98
2023-06-25T22:27:53.660Z,101016.20
2023-06-25T22:30:21.066Z,101023.16
2023-06-25T22:32:48.465Z,101022.02
2023-06-25T22:35:15.445Z,101027.41
2023-06-25T22:37:42.258Z,101029.86
2023-06-25T22:40:10.164Z,101038.36
2023-06-25T22:42:37.696Z,101035.59
2023-06-25T22:45:05.476Z,101039.20
2023-06-25T22:47:32.983Z,101047.63
2023-06-25T22:50:00.088Z,101044.33
2023-06-25T22:52:27.102Z,101046.33
2023-06-25T22:54:54.358Z,101060.35
2023-06-25T22:57:21.736Z,101064.20
2023-06-25T22:59:48.663Z,101054.95
2023-06-25T23:02:15.696Z,101038.44
2023-06-25T23:04:45.541Z,101026.14
2023-06-25T23:07:12.783Z,101019.07
2023-06-25T23:09:40.342Z,101022.63
2023-06-25T23:12:07.475Z,101021.20
2023-06-25T23:14:34.734Z,101018.30
2023-06-25T23:17:01.874Z,101012.20
2023-06-25T23:19:33.833Z,101009.46
2023-06-25T23:22:03.027Z,101004.29
2023-06-25T23:24:38.087Z,100997.99
2023-06-25T23:27:08.699Z,100991.30
2023-06-25T23:29:35.966Z,100983.11
2023-06-25T23:32:03.723Z,100974.96
2023-06-25T23:34:33.620Z,100966.98
2023-06-25T23:37:01.506Z,100957.11
2023-06-25T23:39:33.655Z,100951.00
2023-06-25T23:42:00.624Z,100951.05
2023-06-25T23:44:27.552Z,100949.34
2023-06-25T23:46:54.602Z,100942.68
2023-06-25T23:49:21.928Z,100939.59
2023-06-25T23:51:49.203Z,100936.27
2023-06-25T23:54:16.041Z,100932.00
2023-06-25T23:56:43.111Z,100924.55
2023-06-25T23:59:10.041Z,100920.59
